Time;durP1;ratioP1;P1;durP2;ratioP2;P2;SDS_P1;SDS_P2;PMS_P1;PMS_P2;Temp;Humidity;BMP_temperature;BMP_pressure;BME280_temperature;BME280_humidity;BME280_pressure;Samples;Min_cycle;Max_cycle;Signal;HPM_P1;HPM_P2
2021/12/01 00:00:23;;;;;;;0.90;0.80;;;;;;;;;;5009929;28;20035;-65
2021/12/01 00:02:53;;;;;;;0.65;0.60;;;;;;;;;;5009851;28;20033;-65
2021/12/01 00:05:21;;;;;;;1.10;0.70;;;;;;;;;;5003727;28;20063;-66
2021/12/01 00:07:48;;;;;;;0.60;0.60;;;;;;;;;;5013012;28;20040;-65
2021/12/01 00:10:15;;;;;;;1.85;0.95;;;;;;;;;;5007700;28;20057;-66
2021/12/01 00:12:40;;;;;;;0.77;0.77;;;;;;;;;;5009062;28;20064;-65
2021/12/01 00:15:06;;;;;;;0.80;0.60;;;;;;;;;;5007676;28;20069;-65
2021/12/01 00:17:32;;;;;;;0.80;0.80;;;;;;;;;;5002542;28;20042;-66
2021/12/01 00:19:59;;;;;;;1.05;0.90;;;;;;;;;;5003467;28;20514;-65
2021/12/01 00:22:25;;;;;;;1.27;0.95;;;;;;;;;;5001491;28;20923;-66
2021/12/01 00:24:51;;;;;;;0.82;0.75;;;;;;;;;;5001041;28;20030;-66
2021/12/01 00:27:16;;;;;;;0.93;0.82;;;;;;;;;;4999982;28;20045;-66
2021/12/01 00:29:42;;;;;;;0.90;0.90;;;;;;;;;;5001803;28;20617;-66
2021/12/01 00:32:08;;;;;;;4.00;0.80;;;;;;;;;;5003318;28;20034;-66
2021/12/01 00:34:35;;;;;;;1.00;0.90;;;;;;;;;;5003227;28;20053;-66
2021/12/01 00:37:01;;;;;;;0.52;0.52;;;;;;;;;;5016579;28;20038;-67
2021/12/01 00:39:26;;;;;;;0.80;0.80;;;;;;;;;;5000944;28;20088;-65
2021/12/01 00:41:52;;;;;;;0.70;0.70;;;;;;;;;;5000970;28;22353;-65
2021/12/01 00:44:18;;;;;;;0.73;0.68;;;;;;;;;;5000859;28;20406;-65
2021/12/01 00:49:21;;;;;;;0.93;0.70;;;;;;;;;;4998284;28;20041;-65
2021/12/01 00:51:47;;;;;;;0.82;0.80;;;;;;;;;;5002042;28;20034;-66
2021/12/01 00:54:12;;;;;;;0.70;0.70;;;;;;;;;;5001523;28;20041;-66
2021/12/01 00:56:39;;;;;;;0.75;0.70;;;;;;;;;;5002682;28;20037;-65
2021/12/01 00:59:04;;;;;;;1.48;0.80;;;;;;;;;;5003043;28;20487;-66
2021/12/01 01:01:29;;;;;;;0.80;0.70;;;;;;;;;;5001191;28;20038;-67
2021/12/01 01:03:55;;;;;;;1.00;0.90;;;;;;;;;;5001652;28;20129;-66
2021/12/01 01:06:20;;;;;;;0.65;0.65;;;;;;;;;;5000818;28;20406;-66
2021/12/01 01:08:46;;;;;;;1.00;0.75;;;;;;;;;;5000392;28;20192;-67
2021/12/01 01:16:45;;;;;;;0.75;0.65;;;;;;;;;;5008660;28;20125;-65
2021/12/01 01:19:14;;;;;;;1.20;0.50;;;;;;;;;;5000028;28;20504;-65
2021/12/01 01:21:44;;;;;;;0.60;0.47;;;;;;;;;;5002206;28;20041;-66
2021/12/01 01:24:09;;;;;;;0.82;0.65;;;;;;;;;;5003065;28;20030;-66
2021/12/01 01:26:37;;;;;;;0.95;0.50;;;;;;;;;;5004798;28;20053;-66
2021/12/01 01:29:06;;;;;;;0.75;0.57;;;;;;;;;;5000009;28;20041;-66
2021/12/01 01:31:33;;;;;;;3.65;0.70;;;;;;;;;;5000562;28;20040;-66
2021/12/01 01:33:59;;;;;;;0.68;0.50;;;;;;;;;;5008386;28;20152;-66
2021/12/01 01:36:26;;;;;;;0.88;0.40;;;;;;;;;;5008563;28;20121;-66
2021/12/01 01:38:52;;;;;;;1.27;0.50;;;;;;;;;;5004572;28;20026;-66
2021/12/01 01:41:18;;;;;;;0.52;0.30;;;;;;;;;;4999512;28;20041;-65
2021/12/01 01:43:46;;;;;;;1.02;0.70;;;;;;;;;;5007961;28;20069;-66
2021/12/01 01:46:13;;;;;;;0.55;0.50;;;;;;;;;;5008813;28;20049;-66
2021/12/01 01:48:50;;;;;;;1.90;0.50;;;;;;;;;;5009498;28;20080;-66
2021/12/01 01:51:18;;;;;;;1.35;0.40;;;;;;;;;;5000844;28;20030;-66
2021/12/01 01:53:44;;;;;;;0.50;0.30;;;;;;;;;;5001256;28;20195;-65
2021/12/01 01:56:11;;;;;;;2.55;0.45;;;;;;;;;;5002548;28;20747;-65
2021/12/01 01:58:36;;;;;;;1.90;0.38;;;;;;;;;;5001314;28;20076;-66
2021/12/01 02:01:26;;;;;;;4.18;0.50;;;;;;;;;;5005110;28;20030;-66
2021/12/01 02:03:51;;;;;;;2.67;0.30;;;;;;;;;;5005750;28;20033;-65
2021/12/01 02:06:22;;;;;;;1.80;0.40;;;;;;;;;;5005850;28;20037;-65
2021/12/01 02:08:52;;;;;;;1.45;0.20;;;;;;;;;;5006620;28;20100;-65
2021/12/01 02:11:19;;;;;;;0.70;0.30;;;;;;;;;;5005601;28;20109;-66
2021/12/01 02:13:46;;;;;;;0.32;0.17;;;;;;;;;;5004916;28;20014;-65
2021/12/01 02:16:13;;;;;;;0.20;0.20;;;;;;;;;;5005370;28;20061;-65
2021/12/01 02:18:40;;;;;;;0.20;0.20;;;;;;;;;;5005472;28;20335;-66
2021/12/01 02:21:08;;;;;;;0.35;0.15;;;;;;;;;;5007800;28;20018;-66
2021/12/01 02:23:36;;;;;;;0.15;0.15;;;;;;;;;;5011860;28;20425;-66
2021/12/01 02:26:03;;;;;;;0.22;0.13;;;;;;;;;;5010787;28;20026;-66
2021/12/01 02:28:30;;;;;;;0.60;0.10;;;;;;;;;;5009550;28;20451;-64
2021/12/01 02:30:56;;;;;;;0.10;0.10;;;;;;;;;;5011013;28;20106;-66
2021/12/01 02:33:21;;;;;;;0.65;0.10;;;;;;;;;;5010372;28;20117;-66
2021/12/01 02:35:46;;;;;;;0.50;0.20;;;;;;;;;;5010818;28;20479;-65
2021/12/01 02:38:12;;;;;;;0.50;0.10;;;;;;;;;;5012421;28;20029;-66
2021/12/01 02:40:37;;;;;;;0.88;0.15;;;;;;;;;;5010291;28;20026;-67
2021/12/01 02:43:03;;;;;;;0.55;0.20;;;;;;;;;;5010583;28;20032;-66
2021/12/01 02:45:28;;;;;;;0.38;0.10;;;;;;;;;;5012319;28;20391;-66
2021/12/01 02:47:54;;;;;;;1.00;0.17;;;;;;;;;;5003378;28;20026;-66
2021/12/01 02:50:20;;;;;;;0.20;0.10;;;;;;;;;;5008603;28;20120;-66
2021/12/01 02:52:46;;;;;;;0.25;0.20;;;;;;;;;;5007805;28;20041;-66
2021/12/01 02:55:15;;;;;;;0.30;0.08;;;;;;;;;;5009926;28;20037;-67
2021/12/01 02:57:45;;;;;;;0.45;0.20;;;;;;;;;;5007690;28;20105;-68
2021/12/01 03:00:12;;;;;;;1.00;0.20;;;;;;;;;;5011659;28;20126;-67
2021/12/01 03:02:38;;;;;;;0.50;0.10;;;;;;;;;;5008571;28;20036;-66
2021/12/01 03:05:05;;;;;;;0.90;0.20;;;;;;;;;;4996089;28;20030;-65
2021/12/01 03:07:32;;;;;;;0.85;0.30;;;;;;;;;;5007403;28;20033;-65
2021/12/01 03:09:57;;;;;;;0.57;0.10;;;;;;;;;;5010537;28;20444;-66
2021/12/01 03:12:28;;;;;;;0.63;0.28;;;;;;;;;;5009122;28;20105;-65
2021/12/01 03:14:53;;;;;;;0.77;0.32;;;;;;;;;;5007805;28;20166;-65
2021/12/01 03:17:19;;;;;;;1.33;0.20;;;;;;;;;;5008138;28;20029;-65
2021/12/01 03:19:44;;;;;;;0.30;0.30;;;;;;;;;;5010835;28;20091;-66
2021/12/01 03:22:14;;;;;;;0.38;0.30;;;;;;;;;;5011743;28;20017;-64
2021/12/01 03:24:39;;;;;;;3.33;0.40;;;;;;;;;;5008093;28;20036;-66
2021/12/01 03:27:05;;;;;;;0.45;0.45;;;;;;;;;;5007562;28;20129;-65
2021/12/01 03:29:30;;;;;;;1.45;0.45;;;;;;;;;;5008120;28;20037;-65
2021/12/01 03:31:56;;;;;;;0.40;0.40;;;;;;;;;;5008713;28;20417;-64
2021/12/01 03:34:22;;;;;;;0.65;0.55;;;;;;;;;;5011040;28;20037;-66
2021/12/01 03:36:48;;;;;;;0.60;0.50;;;;;;;;;;5004822;28;20026;-65
2021/12/01 03:39:13;;;;;;;0.65;0.63;;;;;;;;;;5008714;28;20162;-65
2021/12/01 03:41:39;;;;;;;1.98;0.60;;;;;;;;;;5003638;28;20378;-65
2021/12/01 03:44:05;;;;;;;0.68;0.60;;;;;;;;;;5004712;28;20021;-65
2021/12/01 03:46:30;;;;;;;0.60;0.60;;;;;;;;;;5009003;28;20064;-65
2021/12/01 03:48:55;;;;;;;1.55;0.70;;;;;;;;;;5010364;28;20029;-66
2021/12/01 03:51:22;;;;;;;1.08;0.80;;;;;;;;;;5007419;28;20029;-65
2021/12/01 03:53:48;;;;;;;0.73;0.70;;;;;;;;;;5007409;28;20030;-65
2021/12/01 03:56:13;;;;;;;0.68;0.68;;;;;;;;;;5008632;28;20394;-65
2021/12/01 03:58:39;;;;;;;1.85;0.95;;;;;;;;;;5009161;28;20184;-65
2021/12/01 04:01:04;;;;;;;1.02;0.85;;;;;;;;;;5006689;28;20125;-65
2021/12/01 04:03:30;;;;;;;0.80;0.80;;;;;;;;;;5008088;28;20041;-65
2021/12/01 04:05:55;;;;;;;1.00;0.90;;;;;;;;;;5008597;28;20093;-65
2021/12/01 04:08:21;;;;;;;2.67;0.98;;;;;;;;;;5006595;28;20034;-65
2021/12/01 04:10:47;;;;;;;1.05;0.85;;;;;;;;;;5010516;28;20328;-66
2021/12/01 04:13:13;;;;;;;1.27;1.00;;;;;;;;;;5007777;28;20512;-66
2021/12/01 04:15:39;;;;;;;2.90;0.90;;;;;;;;;;5007236;28;20032;-66
2021/12/01 04:18:04;;;;;;;3.15;0.90;;;;;;;;;;5008916;28;20197;-66
2021/12/01 04:20:30;;;;;;;1.05;0.95;;;;;;;;;;5008239;28;20141;-65
2021/12/01 04:22:56;;;;;;;1.08;1.00;;;;;;;;;;5023421;28;20073;-65
2021/12/01 04:25:21;;;;;;;1.23;0.80;;;;;;;;;;5008998;28;20030;-65
2021/12/01 04:27:46;;;;;;;1.10;0.82;;;;;;;;;;5020146;28;20034;-64
2021/12/01 04:30:14;;;;;;;0.80;0.80;;;;;;;;;;5007169;28;20044;-67
2021/12/01 04:32:40;;;;;;;1.30;0.90;;;;;;;;;;5007982;28;20061;-64
2021/12/01 04:35:07;;;;;;;0.77;0.75;;;;;;;;;;5005611;28;20018;-66
2021/12/01 04:37:34;;;;;;;1.00;0.80;;;;;;;;;;5008502;28;20036;-67
2021/12/01 04:39:59;;;;;;;0.85;0.82;;;;;;;;;;5005749;28;20058;-66
2021/12/01 04:42:25;;;;;;;1.13;0.88;;;;;;;;;;5008113;28;20061;-66
2021/12/01 04:44:51;;;;;;;1.83;0.90;;;;;;;;;;5009635;28;20029;-66
2021/12/01 04:47:18;;;;;;;0.90;0.80;;;;;;;;;;5005929;28;20034;-66
2021/12/01 04:49:44;;;;;;;1.73;0.90;;;;;;;;;;5005521;28;20063;-66
2021/12/01 04:52:11;;;;;;;1.27;0.90;;;;;;;;;;5010021;28;20025;-66
2021/12/01 04:54:38;;;;;;;2.90;0.90;;;;;;;;;;5007425;28;20025;-67
2021/12/01 04:57:05;;;;;;;1.15;0.93;;;;;;;;;;5006507;28;20045;-67
2021/12/01 04:59:31;;;;;;;1.25;0.90;;;;;;;;;;5005192;28;20041;-66
2021/12/01 05:01:57;;;;;;;1.02;0.80;;;;;;;;;;5005528;28;20022;-67
2021/12/01 05:04:22;;;;;;;1.98;0.80;;;;;;;;;;5006731;28;20040;-67
2021/12/01 05:06:49;;;;;;;1.42;0.80;;;;;;;;;;5006997;28;20389;-67
2021/12/01 05:09:14;;;;;;;1.25;0.98;;;;;;;;;;5013492;28;20018;-66
2021/12/01 05:11:40;;;;;;;4.22;0.93;;;;;;;;;;5002555;28;20052;-66
2021/12/01 05:14:05;;;;;;;1.17;0.95;;;;;;;;;;5006382;28;20128;-66
2021/12/01 05:16:31;;;;;;;1.63;0.90;;;;;;;;;;5008891;28;20018;-66
2021/12/01 05:18:57;;;;;;;1.23;0.70;;;;;;;;;;5005913;28;20034;-66
2021/12/01 05:21:22;;;;;;;0.98;0.80;;;;;;;;;;5010953;28;20065;-66
2021/12/01 05:23:48;;;;;;;0.85;0.80;;;;;;;;;;5006074;28;20411;-66
2021/12/01 05:26:14;;;;;;;1.02;0.80;;;;;;;;;;5009239;28;20061;-66
2021/12/01 05:28:41;;;;;;;3.05;1.23;;;;;;;;;;5007040;28;20462;-66
2021/12/01 05:31:07;;;;;;;1.70;1.02;;;;;;;;;;5006925;28;20034;-66
2021/12/01 05:33:33;;;;;;;1.80;0.93;;;;;;;;;;5008426;28;20030;-66
2021/12/01 05:35:59;;;;;;;3.13;0.85;;;;;;;;;;5010257;28;20029;-66
2021/12/01 05:38:25;;;;;;;3.75;1.00;;;;;;;;;;5011671;28;20045;-67
2021/12/01 05:40:51;;;;;;;2.90;1.08;;;;;;;;;;5010212;28;20378;-66
2021/12/01 05:43:17;;;;;;;1.60;1.13;;;;;;;;;;5010633;28;20041;-66
2021/12/01 05:45:43;;;;;;;1.55;0.80;;;;;;;;;;5011241;28;20021;-66
2021/12/01 05:48:09;;;;;;;1.08;0.98;;;;;;;;;;5012713;28;20084;-66
2021/12/01 05:50:35;;;;;;;1.30;0.90;;;;;;;;;;5009603;28;20034;-66
2021/12/01 05:53:00;;;;;;;1.45;1.00;;;;;;;;;;5014020;28;20510;-67
2021/12/01 05:55:26;;;;;;;1.42;1.05;;;;;;;;;;5010454;28;20454;-65
2021/12/01 05:57:52;;;;;;;4.05;1.08;;;;;;;;;;5010744;28;20110;-67
2021/12/01 06:00:17;;;;;;;1.77;0.82;;;;;;;;;;5027614;28;20052;-67
2021/12/01 06:02:44;;;;;;;2.33;1.02;;;;;;;;;;5009823;28;20034;-67
2021/12/01 06:05:10;;;;;;;1.48;1.00;;;;;;;;;;5007929;28;20029;-65
2021/12/01 06:07:36;;;;;;;1.20;1.10;;;;;;;;;;5004615;28;21568;-67
2021/12/01 06:10:02;;;;;;;1.55;1.40;;;;;;;;;;5010508;28;20041;-66
2021/12/01 06:12:29;;;;;;;2.42;1.40;;;;;;;;;;5012912;28;20049;-65
2021/12/01 06:14:55;;;;;;;1.63;1.40;;;;;;;;;;5019669;28;20034;-65
2021/12/01 06:17:21;;;;;;;3.90;1.48;;;;;;;;;;5007847;28;20049;-64
2021/12/01 06:19:47;;;;;;;6.38;1.40;;;;;;;;;;5008088;28;20056;-64
2021/12/01 06:22:12;;;;;;;1.95;1.42;;;;;;;;;;5006671;28;20419;-64
2021/12/01 06:24:37;;;;;;;2.70;1.90;;;;;;;;;;5008217;28;20026;-65
2021/12/01 06:27:05;;;;;;;4.13;1.40;;;;;;;;;;5007393;28;20077;-66
2021/12/01 06:29:31;;;;;;;2.13;1.40;;;;;;;;;;5007823;28;20040;-65
2021/12/01 06:31:56;;;;;;;3.80;1.88;;;;;;;;;;5011419;28;20450;-65
2021/12/01 06:34:21;;;;;;;3.13;1.58;;;;;;;;;;5010433;28;20028;-64
2021/12/01 06:36:47;;;;;;;7.05;1.80;;;;;;;;;;5006206;28;20026;-65
2021/12/01 06:39:12;;;;;;;3.13;1.38;;;;;;;;;;5008466;28;20030;-65
2021/12/01 06:41:38;;;;;;;2.42;1.70;;;;;;;;;;5010185;28;20382;-65
2021/12/01 06:44:04;;;;;;;2.47;1.58;;;;;;;;;;5009825;28;20036;-67
2021/12/01 06:46:30;;;;;;;2.47;1.90;;;;;;;;;;5006629;28;20052;-64
2021/12/01 06:48:56;;;;;;;4.68;1.77;;;;;;;;;;5013345;28;20065;-64
2021/12/01 06:51:22;;;;;;;4.63;1.90;;;;;;;;;;5009374;28;20117;-64
2021/12/01 06:53:48;;;;;;;4.25;2.05;;;;;;;;;;5009357;28;20104;-64
2021/12/01 06:56:16;;;;;;;2.85;1.65;;;;;;;;;;5010103;28;20141;-65
2021/12/01 06:58:42;;;;;;;2.90;1.50;;;;;;;;;;5008198;28;20098;-64
2021/12/01 07:01:07;;;;;;;2.63;1.90;;;;;;;;;;5011434;28;20509;-64
2021/12/01 07:03:34;;;;;;;2.97;1.67;;;;;;;;;;5006923;28;20541;-66
2021/12/01 07:05:59;;;;;;;2.55;1.70;;;;;;;;;;5006066;28;20029;-65
2021/12/01 07:08:25;;;;;;;2.13;1.52;;;;;;;;;;5012605;28;20041;-65
2021/12/01 07:10:51;;;;;;;2.20;1.75;;;;;;;;;;5009577;28;20251;-65
2021/12/01 07:13:16;;;;;;;2.35;1.42;;;;;;;;;;5010598;28;20508;-65
2021/12/01 07:15:42;;;;;;;3.33;1.50;;;;;;;;;;5011966;28;20121;-65
2021/12/01 07:18:08;;;;;;;4.03;2.40;;;;;;;;;;5006283;28;20030;-65
2021/12/01 07:20:33;;;;;;;4.25;1.48;;;;;;;;;;5010366;28;20080;-64
2021/12/01 07:22:59;;;;;;;1.40;1.20;;;;;;;;;;5007974;28;20034;-65
2021/12/01 07:25:25;;;;;;;2.08;1.13;;;;;;;;;;5006836;28;20076;-64
2021/12/01 07:27:50;;;;;;;2.90;1.17;;;;;;;;;;5009689;28;20037;-66
2021/12/01 07:30:16;;;;;;;2.45;1.30;;;;;;;;;;5006062;28;20053;-65
2021/12/01 07:32:41;;;;;;;2.60;1.13;;;;;;;;;;5008879;28;20033;-66
2021/12/01 07:35:07;;;;;;;2.45;0.98;;;;;;;;;;5008316;28;20021;-65
2021/12/01 07:37:32;;;;;;;1.40;1.20;;;;;;;;;;5010302;28;20099;-65
2021/12/01 07:39:58;;;;;;;1.50;1.17;;;;;;;;;;5012965;28;20738;-65
2021/12/01 07:42:23;;;;;;;3.47;1.30;;;;;;;;;;5010693;28;20079;-65
2021/12/01 07:44:49;;;;;;;1.65;1.10;;;;;;;;;;5010808;28;20077;-65
2021/12/01 07:47:14;;;;;;;3.30;0.88;;;;;;;;;;5011889;28;20025;-65
2021/12/01 07:49:40;;;;;;;2.88;1.13;;;;;;;;;;5008992;28;20033;-64
2021/12/01 07:52:07;;;;;;;0.82;0.82;;;;;;;;;;5009765;28;20056;-65
2021/12/01 07:54:32;;;;;;;2.78;1.00;;;;;;;;;;5003800;28;20041;-65
2021/12/01 07:56:58;;;;;;;1.10;1.00;;;;;;;;;;5002259;28;20029;-65
2021/12/01 07:59:24;;;;;;;2.25;1.10;;;;;;;;;;5001259;28;20573;-65
2021/12/01 08:01:49;;;;;;;1.58;0.98;;;;;;;;;;5001275;28;20076;-65
2021/12/01 08:04:15;;;;;;;1.85;1.10;;;;;;;;;;5002965;28;20072;-65
2021/12/01 08:06:43;;;;;;;2.42;1.48;;;;;;;;;;4998411;28;20482;-65
2021/12/01 08:09:09;;;;;;;1.33;0.90;;;;;;;;;;5009796;28;20026;-65
2021/12/01 08:11:35;;;;;;;1.15;0.82;;;;;;;;;;5012275;28;20172;-65
2021/12/01 08:14:01;;;;;;;3.38;0.95;;;;;;;;;;5008696;28;20344;-65
2021/12/01 08:16:26;;;;;;;3.10;1.10;;;;;;;;;;5009981;28;20093;-64
2021/12/01 08:18:54;;;;;;;3.88;1.00;;;;;;;;;;5007783;28;20455;-64
2021/12/01 08:21:20;;;;;;;3.80;0.93;;;;;;;;;;5009791;28;20130;-65
2021/12/01 08:23:46;;;;;;;2.25;0.90;;;;;;;;;;5008127;28;20096;-67
2021/12/01 08:26:12;;;;;;;3.42;1.27;;;;;;;;;;5006992;28;20021;-64
2021/12/01 08:28:37;;;;;;;2.50;1.00;;;;;;;;;;5008464;28;20030;-64
2021/12/01 08:31:03;;;;;;;1.50;0.80;;;;;;;;;;5005722;28;20029;-65
2021/12/01 08:33:28;;;;;;;2.05;0.85;;;;;;;;;;5003125;28;20041;-66
2021/12/01 08:35:54;;;;;;;1.73;0.80;;;;;;;;;;5011024;28;20041;-65
2021/12/01 08:38:19;;;;;;;1.25;0.50;;;;;;;;;;5006164;28;20113;-66
2021/12/01 08:40:45;;;;;;;0.95;0.57;;;;;;;;;;5007912;28;20034;-65
2021/12/01 08:43:10;;;;;;;2.25;0.82;;;;;;;;;;5002957;28;20034;-66
2021/12/01 08:45:36;;;;;;;2.40;0.57;;;;;;;;;;5004032;28;20025;-66
2021/12/01 08:48:06;;;;;;;0.70;0.40;;;;;;;;;;5011736;28;20052;-66
2021/12/01 08:50:33;;;;;;;0.93;0.50;;;;;;;;;;5004465;28;20156;-66
2021/12/01 08:52:59;;;;;;;0.80;0.80;;;;;;;;;;5007243;28;20603;-66
2021/12/01 08:55:25;;;;;;;1.42;0.52;;;;;;;;;;5008794;28;20088;-65
2021/12/01 08:57:51;;;;;;;1.38;0.63;;;;;;;;;;5005636;28;20463;-65
2021/12/01 09:00:18;;;;;;;1.63;0.55;;;;;;;;;;5009752;28;20510;-65
2021/12/01 09:02:43;;;;;;;0.75;0.57;;;;;;;;;;5006898;28;20048;-65
2021/12/01 09:05:09;;;;;;;0.70;0.50;;;;;;;;;;5008465;28;20038;-65
2021/12/01 09:07:34;;;;;;;3.08;0.60;;;;;;;;;;5010099;28;20034;-66
2021/12/01 09:10:00;;;;;;;1.58;0.80;;;;;;;;;;5008919;28;20446;-64
2021/12/01 09:12:25;;;;;;;0.95;0.60;;;;;;;;;;5009024;28;20034;-64
2021/12/01 09:14:52;;;;;;;1.02;0.50;;;;;;;;;;5007589;28;20439;-63
2021/12/01 09:17:17;;;;;;;0.88;0.50;;;;;;;;;;5006160;28;20398;-64
2021/12/01 09:19:43;;;;;;;0.88;0.52;;;;;;;;;;5008262;28;20037;-64
2021/12/01 09:22:09;;;;;;;0.40;0.30;;;;;;;;;;5006973;28;20438;-67
2021/12/01 09:24:35;;;;;;;1.77;0.82;;;;;;;;;;5008398;28;20042;-64
2021/12/01 09:27:00;;;;;;;2.13;0.63;;;;;;;;;;5026159;28;20029;-64
2021/12/01 09:29:27;;;;;;;1.75;0.50;;;;;;;;;;5006726;28;20113;-64
2021/12/01 09:31:55;;;;;;;0.88;0.43;;;;;;;;;;5008366;28;20407;-64
2021/12/01 09:34:20;;;;;;;1.73;0.60;;;;;;;;;;5001474;28;20044;-66
2021/12/01 09:36:45;;;;;;;0.85;0.75;;;;;;;;;;5001436;28;21911;-63
2021/12/01 09:39:11;;;;;;;0.30;0.30;;;;;;;;;;5002013;28;20076;-67
2021/12/01 09:41:37;;;;;;;0.93;0.50;;;;;;;;;;5005691;28;20092;-65
2021/12/01 09:44:03;;;;;;;2.65;1.10;;;;;;;;;;5019880;28;20026;-64
2021/12/01 09:46:30;;;;;;;1.95;0.80;;;;;;;;;;5004699;28;20079;-66
2021/12/01 09:48:56;;;;;;;0.30;0.30;;;;;;;;;;5007370;28;20473;-66
2021/12/01 09:51:22;;;;;;;0.50;0.35;;;;;;;;;;5006752;28;20034;-66
2021/12/01 09:53:48;;;;;;;1.45;0.50;;;;;;;;;;5005999;28;20489;-66
2021/12/01 09:56:15;;;;;;;1.10;0.60;;;;;;;;;;5022345;28;20040;-66
2021/12/01 09:58:43;;;;;;;0.75;0.40;;;;;;;;;;5007062;28;20423;-65
2021/12/01 10:01:12;;;;;;;0.73;0.40;;;;;;;;;;5002381;28;20028;-65
2021/12/01 10:03:39;;;;;;;0.85;0.30;;;;;;;;;;5006593;28;20068;-65
2021/12/01 10:06:11;;;;;;;2.90;0.70;;;;;;;;;;5008105;28;20114;-68
2021/12/01 10:08:40;;;;;;;0.73;0.47;;;;;;;;;;5002594;28;20040;-66
2021/12/01 10:11:17;;;;;;;1.13;0.45;;;;;;;;;;5006458;28;20031;-65
2021/12/01 10:13:45;;;;;;;1.13;0.35;;;;;;;;;;5008988;28;20026;-65
2021/12/01 10:16:14;;;;;;;0.57;0.50;;;;;;;;;;5006027;28;20041;-64
2021/12/01 10:18:43;;;;;;;2.38;1.02;;;;;;;;;;5021050;28;20471;-65
2021/12/01 10:21:18;;;;;;;2.05;0.50;;;;;;;;;;5008525;28;20026;-63
2021/12/01 10:23:49;;;;;;;0.30;0.30;;;;;;;;;;5007853;28;20037;-65
2021/12/01 10:26:21;;;;;;;0.35;0.20;;;;;;;;;;5003385;28;20022;-65
2021/12/01 10:29:08;;;;;;;0.43;0.30;;;;;;;;;;5005426;28;20064;-65
2021/12/01 10:31:45;;;;;;;2.13;0.40;;;;;;;;;;5007632;28;20026;-65
2021/12/01 10:34:20;;;;;;;0.20;0.20;;;;;;;;;;5009967;28;20030;-64
2021/12/01 10:36:48;;;;;;;1.83;0.40;;;;;;;;;;5012252;28;20034;-65
2021/12/01 10:39:14;;;;;;;0.65;0.32;;;;;;;;;;5010406;28;20440;-64
2021/12/01 10:41:42;;;;;;;1.17;0.30;;;;;;;;;;5012519;28;20132;-65
2021/12/01 10:44:18;;;;;;;0.68;0.30;;;;;;;;;;5006567;28;20026;-64
2021/12/01 10:46:53;;;;;;;0.52;0.20;;;;;;;;;;5010269;28;20042;-65
2021/12/01 10:49:42;;;;;;;0.28;0.20;;;;;;;;;;5009384;28;20026;-65
2021/12/01 10:52:29;;;;;;;0.20;0.20;;;;;;;;;;5012066;28;20144;-65
2021/12/01 10:55:03;;;;;;;0.10;0.10;;;;;;;;;;5007152;28;20114;-64
2021/12/01 10:57:29;;;;;;;0.20;0.20;;;;;;;;;;5010239;28;20034;-65
2021/12/01 10:59:54;;;;;;;1.83;0.50;;;;;;;;;;5014147;28;20052;-66
2021/12/01 11:02:20;;;;;;;0.45;0.22;;;;;;;;;;5010598;28;20034;-66
2021/12/01 11:04:48;;;;;;;0.43;0.25;;;;;;;;;;5010923;28;20091;-66
2021/12/01 11:07:28;;;;;;;1.35;0.20;;;;;;;;;;5010594;28;20030;-66
2021/12/01 11:10:17;;;;;;;0.55;0.20;;;;;;;;;;5010603;28;20506;-66
2021/12/01 11:12:44;;;;;;;0.60;0.30;;;;;;;;;;5011125;28;20029;-66
2021/12/01 11:15:25;;;;;;;0.30;0.20;;;;;;;;;;5008508;28;20117;-66
2021/12/01 11:17:51;;;;;;;1.30;0.30;;;;;;;;;;5009190;28;20029;-65
2021/12/01 11:20:35;;;;;;;0.20;0.20;;;;;;;;;;5009422;28;20052;-66
2021/12/01 11:23:16;;;;;;;0.70;0.30;;;;;;;;;;5003977;28;20482;-64
2021/12/01 11:25:47;;;;;;;0.55;0.20;;;;;;;;;;5012124;28;20564;-65
2021/12/01 11:28:15;;;;;;;0.30;0.20;;;;;;;;;;5008231;28;20045;-65
2021/12/01 11:30:43;;;;;;;1.10;0.30;;;;;;;;;;5009650;28;20655;-65
2021/12/01 11:33:13;;;;;;;2.20;0.32;;;;;;;;;;5020172;28;20466;-64
2021/12/01 11:35:39;;;;;;;0.38;0.22;;;;;;;;;;4963290;28;20071;-66
2021/12/01 11:38:05;;;;;;;0.50;0.13;;;;;;;;;;4964433;28;20082;-65
2021/12/01 11:40:31;;;;;;;1.52;0.30;;;;;;;;;;4966659;28;20034;-65
2021/12/01 11:42:58;;;;;;;1.08;0.30;;;;;;;;;;4962553;28;20031;-64
2021/12/01 11:45:24;;;;;;;0.95;0.40;;;;;;;;;;4967423;28;20080;-64
2021/12/01 11:47:51;;;;;;;2.33;0.70;;;;;;;;;;4967649;28;20111;-65
2021/12/01 11:50:32;;;;;;;0.52;0.20;;;;;;;;;;4965290;28;20145;-64
2021/12/01 11:53:22;;;;;;;1.55;0.60;;;;;;;;;;4966610;28;20104;-63
2021/12/01 11:55:51;;;;;;;1.25;0.30;;;;;;;;;;4967398;28;20034;-64
2021/12/01 11:58:43;;;;;;;0.32;0.20;;;;;;;;;;4967428;28;20070;-64
2021/12/01 12:01:20;;;;;;;0.30;0.20;;;;;;;;;;4967623;28;20022;-66
2021/12/01 12:04:06;;;;;;;0.73;0.20;;;;;;;;;;4965428;28;20027;-66
2021/12/01 12:06:33;;;;;;;1.20;0.20;;;;;;;;;;4965673;28;20491;-65
2021/12/01 12:09:05;;;;;;;0.68;0.17;;;;;;;;;;4968503;28;20034;-66
2021/12/01 12:11:38;;;;;;;0.10;0.10;;;;;;;;;;4968087;28;20054;-65
2021/12/01 12:14:11;;;;;;;1.02;0.10;;;;;;;;;;4966987;28;20026;-65
2021/12/01 12:16:38;;;;;;;1.15;0.35;;;;;;;;;;4970442;28;20034;-65
2021/12/01 12:19:03;;;;;;;1.88;0.38;;;;;;;;;;4964556;28;20439;-65
2021/12/01 12:24:48;;;;;;;0.38;0.20;;;;;;;;;;4968511;28;20042;-65
2021/12/01 12:27:29;;;;;;;0.30;0.25;;;;;;;;;;4968889;28;20062;-65
2021/12/01 12:29:57;;;;;;;0.20;0.20;;;;;;;;;;4967008;28;20034;-65
2021/12/01 12:32:24;;;;;;;1.55;0.30;;;;;;;;;;4963668;28;20035;-66
2021/12/01 12:34:51;;;;;;;0.65;0.17;;;;;;;;;;4962818;28;20424;-66
2021/12/01 12:37:22;;;;;;;0.10;0.10;;;;;;;;;;4962674;28;20093;-65
2021/12/01 12:39:47;;;;;;;0.25;0.17;;;;;;;;;;4968911;28;20035;-65
2021/12/01 12:42:13;;;;;;;0.70;0.50;;;;;;;;;;4970126;28;20037;-64
2021/12/01 12:44:41;;;;;;;0.90;0.30;;;;;;;;;;4968451;28;20098;-67
2021/12/01 12:47:22;;;;;;;0.30;0.20;;;;;;;;;;4967739;28;20027;-65
2021/12/01 12:50:08;;;;;;;0.40;0.20;;;;;;;;;;4963340;28;20114;-65
2021/12/01 12:52:40;;;;;;;0.32;0.22;;;;;;;;;;4960220;28;20034;-64
2021/12/01 12:55:06;;;;;;;0.10;0.10;;;;;;;;;;4968490;28;20034;-66
2021/12/01 12:57:53;;;;;;;0.73;0.30;;;;;;;;;;4966353;28;20387;-67
2021/12/01 13:00:29;;;;;;;0.45;0.20;;;;;;;;;;4968664;28;20050;-67
2021/12/01 13:02:58;;;;;;;1.00;0.30;;;;;;;;;;4968569;28;20080;-67
2021/12/01 13:05:29;;;;;;;0.43;0.10;;;;;;;;;;4964624;28;20035;-67
2021/12/01 13:07:56;;;;;;;2.90;0.30;;;;;;;;;;4963448;28;20089;-63
2021/12/01 13:10:27;;;;;;;0.30;0.10;;;;;;;;;;4965970;28;20031;-67
2021/12/01 13:13:04;;;;;;;1.45;0.20;;;;;;;;;;4968106;28;20031;-65
2021/12/01 13:15:35;;;;;;;1.35;0.30;;;;;;;;;;4966737;28;20027;-66
2021/12/01 13:18:04;;;;;;;1.20;0.20;;;;;;;;;;4965080;28;20033;-66
2021/12/01 13:20:34;;;;;;;0.60;0.30;;;;;;;;;;4967357;28;20063;-65
2021/12/01 13:23:07;;;;;;;0.52;0.30;;;;;;;;;;4968097;28;20033;-65
2021/12/01 13:25:33;;;;;;;;;;;;;;;;;;4970200;28;20088;-65
2021/12/01 13:28:03;;;;;;;0.20;0.20;;;;;;;;;;4966041;28;19921;-65
2021/12/01 13:30:31;;;;;;;0.20;0.20;;;;;;;;;;4966799;28;20117;-65
2021/12/01 13:33:14;;;;;;;0.85;0.40;;;;;;;;;;4967027;28;20030;-65
2021/12/01 13:35:40;;;;;;;0.15;0.15;;;;;;;;;;4963264;28;20081;-65
2021/12/01 13:38:07;;;;;;;0.20;0.10;;;;;;;;;;4964207;28;20042;-65
2021/12/01 13:40:37;;;;;;;0.10;0.10;;;;;;;;;;4964272;28;20627;-65
2021/12/01 13:43:04;;;;;;;0.20;0.20;;;;;;;;;;4966542;28;20078;-65
2021/12/01 13:45:30;;;;;;;0.80;0.28;;;;;;;;;;4962807;28;20408;-65
2021/12/01 13:47:55;;;;;;;0.57;0.45;;;;;;;;;;4961449;28;20023;-65
2021/12/01 13:50:21;;;;;;;0.30;0.30;;;;;;;;;;4961597;28;22021;-65
2021/12/01 13:52:50;;;;;;;1.48;0.17;;;;;;;;;;4960822;28;20132;-64
2021/12/01 13:55:32;;;;;;;1.80;0.17;;;;;;;;;;4963030;28;20403;-66
2021/12/01 13:58:09;;;;;;;0.82;0.20;;;;;;;;;;4966660;28;20681;-66
2021/12/01 14:00:43;;;;;;;0.80;0.25;;;;;;;;;;4969082;28;20054;-65
2021/12/01 14:03:12;;;;;;;1.20;0.20;;;;;;;;;;4967558;28;20171;-65
2021/12/01 14:05:39;;;;;;;0.57;0.20;;;;;;;;;;4967334;28;20510;-66
2021/12/01 14:08:28;;;;;;;0.50;0.38;;;;;;;;;;4968935;28;20472;-65
2021/12/01 14:11:24;;;;;;;0.63;0.20;;;;;;;;;;4972808;28;20053;-66
2021/12/01 14:13:54;;;;;;;1.27;0.30;;;;;;;;;;4971964;28;20081;-66
2021/12/01 14:16:22;;;;;;;1.67;0.17;;;;;;;;;;4970993;28;20397;-66
2021/12/01 14:18:48;;;;;;;0.20;0.20;;;;;;;;;;4966918;28;20097;-65
2021/12/01 14:21:18;;;;;;;0.30;0.22;;;;;;;;;;4967264;28;20031;-66
2021/12/01 14:23:50;;;;;;;0.20;0.20;;;;;;;;;;4966123;28;20170;-66
2021/12/01 14:26:16;;;;;;;0.28;0.28;;;;;;;;;;4966223;28;20093;-65
2021/12/01 14:28:44;;;;;;;0.35;0.22;;;;;;;;;;4965326;28;20038;-65
2021/12/01 14:31:09;;;;;;;0.30;0.30;;;;;;;;;;4967862;28;20319;-65
2021/12/01 14:33:35;;;;;;;0.20;0.20;;;;;;;;;;4968159;28;20044;-65
2021/12/01 14:36:04;;;;;;;0.20;0.20;;;;;;;;;;4970671;28;20035;-66
2021/12/01 14:38:33;;;;;;;0.22;0.20;;;;;;;;;;4971065;28;20434;-65
2021/12/01 14:40:59;;;;;;;0.28;0.28;;;;;;;;;;4966720;28;20113;-65
2021/12/01 14:43:30;;;;;;;1.15;0.30;;;;;;;;;;4969322;28;20134;-65
2021/12/01 14:46:10;;;;;;;2.05;0.63;;;;;;;;;;4966182;28;20436;-64
2021/12/01 14:48:36;;;;;;;0.20;0.20;;;;;;;;;;4971636;28;20533;-65
2021/12/01 14:51:03;;;;;;;0.20;0.20;;;;;;;;;;4972001;28;20031;-65
2021/12/01 14:53:38;;;;;;;0.35;0.30;;;;;;;;;;4974636;28;20038;-66
2021/12/01 14:56:07;;;;;;;0.38;0.20;;;;;;;;;;4972343;28;20038;-64
2021/12/01 14:58:33;;;;;;;1.48;0.47;;;;;;;;;;4972460;28;20498;-65